Time;durP1;ratioP1;P1;durP2;ratioP2;P2;SDS_P1;SDS_P2;PMS_P1;PMS_P2;Temp;Humidity;BMP_temperature;BMP_pressure;BME280_temperature;BME280_humidity;BME280_pressure;Samples;Min_cycle;Max_cycle;Signal;HPM_P1;HPM_P2
2021/10/05 00:01:15;;;;;;;20.90;15.27;;;11.70;99.90;;;;;;5028335;28;20997;-83
2021/10/05 00:04:02;;;;;;;18.30;14.20;;;11.70;99.90;;;;;;5034378;28;20677;-82
2021/10/05 00:06:49;;;;;;;17.90;13.87;;;11.70;99.90;;;;;;5028024;28;20668;-82
2021/10/05 00:09:37;;;;;;;20.40;14.43;;;11.80;99.90;;;;;;5020444;28;20629;-83
2021/10/05 00:12:16;;;;;;;17.80;14.33;;;11.80;99.90;;;;;;5025558;27;20659;-83
2021/10/05 00:15:05;;;;;;;16.90;14.27;;;11.70;99.90;;;;;;5067573;27;20620;-83
2021/10/05 00:17:52;;;;;;;18.80;15.07;;;11.80;99.90;;;;;;5040617;27;20628;-83
2021/10/05 00:20:31;;;;;;;22.97;15.77;;;11.80;99.90;;;;;;5017907;28;20628;-83
2021/10/05 00:23:18;;;;;;;20.93;13.97;;;11.90;99.90;;;;;;5005882;28;20741;-83
2021/10/05 00:25:58;;;;;;;22.77;14.13;;;11.80;99.90;;;;;;5026054;28;20633;-83
2021/10/05 00:28:44;;;;;;;21.27;15.73;;;11.90;99.90;;;;;;5032231;27;20642;-83
2021/10/05 00:31:32;;;;;;;17.50;14.50;;;11.80;99.90;;;;;;5024936;28;20708;-83
2021/10/05 00:34:19;;;;;;;17.40;13.13;;;11.80;99.90;;;;;;5015062;28;21274;-83
2021/10/05 00:37:00;;;;;;;19.17;15.10;;;11.80;99.90;;;;;;5010117;28;20749;-82
2021/10/05 00:39:47;;;;;;;20.83;15.73;;;11.70;99.90;;;;;;5013987;28;20625;-82
2021/10/05 00:42:35;;;;;;;18.10;14.80;;;11.70;99.90;;;;;;5026398;28;21034;-82
2021/10/05 00:45:22;;;;;;;16.53;13.27;;;11.70;99.90;;;;;;5015258;28;20724;-82
2021/10/05 00:48:00;;;;;;;19.90;15.13;;;11.70;99.90;;;;;;5009128;28;20641;-82
2021/10/05 00:50:48;;;;;;;22.70;14.63;;;11.60;99.90;;;;;;5015335;28;20712;-83
2021/10/05 00:53:30;;;;;;;21.47;15.33;;;11.70;99.90;;;;;;5020609;28;20670;-82
2021/10/05 00:56:16;;;;;;;19.70;14.00;;;11.70;99.90;;;;;;5023798;28;20665;-82
2021/10/05 00:59:02;;;;;;;20.37;15.50;;;11.70;99.90;;;;;;5022811;28;20644;-82
2021/10/05 01:01:49;;;;;;;20.80;14.70;;;11.70;99.90;;;;;;5017553;28;20737;-83
2021/10/05 01:04:36;;;;;;;15.97;13.07;;;11.80;99.90;;;;;;5008106;28;20638;-83
2021/10/05 01:07:24;;;;;;;21.30;14.60;;;11.80;99.90;;;;;;5019460;28;20614;-83
2021/10/05 01:10:11;;;;;;;19.77;13.70;;;11.80;99.90;;;;;;5008140;28;20671;-83
2021/10/05 01:12:53;;;;;;;17.90;14.00;;;11.90;99.90;;;;;;5028161;28;20617;-82
2021/10/05 01:15:32;;;;;;;15.80;13.70;;;11.90;99.90;;;;;;5012565;28;20726;-82
2021/10/05 01:18:19;;;;;;;16.33;13.40;;;11.90;99.90;;;;;;5005735;28;20720;-82
2021/10/05 01:21:00;;;;;;;22.33;15.70;;;12.00;99.90;;;;;;5010402;28;20675;-82
2021/10/05 01:23:46;;;;;;;16.47;13.80;;;11.90;99.90;;;;;;5007521;28;20641;-82
2021/10/05 01:26:33;;;;;;;15.40;13.40;;;12.00;99.90;;;;;;5006387;28;21244;-82
2021/10/05 01:29:14;;;;;;;17.17;14.33;;;12.00;99.90;;;;;;5023704;28;20634;-82
2021/10/05 01:31:57;;;;;;;19.40;14.10;;;11.90;99.90;;;;;;5014520;27;20650;-82
2021/10/05 01:34:35;;;;;;;16.97;12.57;;;11.90;99.90;;;;;;5012026;28;20653;-82
2021/10/05 01:37:13;;;;;;;19.07;13.27;;;11.90;99.90;;;;;;5023930;28;21410;-82
2021/10/05 01:40:00;;;;;;;23.60;14.17;;;11.90;99.90;;;;;;5022226;28;20993;-82
2021/10/05 01:42:43;;;;;;;23.97;13.73;;;11.80;99.90;;;;;;5010114;28;20626;-82
2021/10/05 01:45:31;;;;;;;17.93;12.60;;;11.80;99.90;;;;;;5015951;28;20979;-82
2021/10/05 01:48:18;;;;;;;19.20;13.27;;;11.90;99.90;;;;;;5012355;28;20630;-82
2021/10/05 01:50:55;;;;;;;18.63;13.33;;;11.80;99.90;;;;;;5009690;28;20634;-82
2021/10/05 01:53:43;;;;;;;15.70;13.60;;;11.80;99.90;;;;;;5025860;28;20794;-82
2021/10/05 01:56:21;;;;;;;17.70;15.33;;;11.80;99.90;;;;;;5016944;28;20641;-82
2021/10/05 01:59:08;;;;;;;18.07;14.40;;;11.80;99.90;;;;;;5017783;28;20681;-82
2021/10/05 02:01:53;;;;;;;17.43;12.97;;;11.80;99.90;;;;;;5006960;28;20635;-82
2021/10/05 02:04:36;;;;;;;18.07;14.10;;;11.80;99.90;;;;;;5018646;28;20702;-82
2021/10/05 02:07:18;;;;;;;16.93;12.90;;;11.80;99.90;;;;;;5017251;27;20632;-82
2021/10/05 02:10:08;;;;;;;19.07;13.40;;;11.70;99.90;;;;;;5013037;28;20698;-82
2021/10/05 02:12:52;;;;;;;16.03;12.13;;;11.80;99.90;;;;;;5023475;28;20720;-81
2021/10/05 02:15:35;;;;;;;18.93;14.47;;;11.70;99.90;;;;;;5009365;28;21106;-81
2021/10/05 02:18:20;;;;;;;20.50;14.40;;;11.80;99.90;;;;;;5015354;28;20638;-81
2021/10/05 02:21:04;;;;;;;17.67;14.50;;;11.90;99.90;;;;;;5009374;28;20640;-82
2021/10/05 02:26:45;;;;;;;22.23;15.60;;;11.80;99.90;;;;;;4996504;28;21209;-82
2021/10/05 02:29:36;;;;;;;16.10;12.67;;;11.70;99.90;;;;;;5006869;28;20623;-82
2021/10/05 02:32:23;;;;;;;20.90;15.10;;;11.80;99.90;;;;;;5007439;28;20621;-81
2021/10/05 02:35:06;;;;;;;18.50;14.30;;;11.80;99.90;;;;;;5006757;28;20784;-82
2021/10/05 02:37:53;;;;;;;17.13;14.20;;;11.80;99.90;;;;;;5016283;28;20617;-82
2021/10/05 02:40:31;;;;;;;21.53;15.60;;;11.70;99.90;;;;;;5010984;28;20731;-82
2021/10/05 02:43:14;;;;;;;19.67;13.73;;;11.80;99.90;;;;;;5006719;28;20725;-82
2021/10/05 02:45:52;;;;;;;20.40;14.53;;;11.80;99.90;;;;;;5008268;28;20636;-82
2021/10/05 02:48:26;;;;;;;18.80;14.63;;;11.80;99.90;;;;;;5020734;28;20664;-81
2021/10/05 02:51:03;;;;;;;18.30;13.53;;;11.80;99.90;;;;;;5024224;28;20630;-81
2021/10/05 02:53:50;;;;;;;21.80;14.53;;;11.70;99.90;;;;;;5005840;28;20668;-81
2021/10/05 02:56:36;;;;;;;18.10;14.10;;;11.70;99.90;;;;;;5022697;28;20724;-82
2021/10/05 02:59:15;;;;;;;22.30;14.93;;;11.70;99.90;;;;;;5021120;28;21020;-81
2021/10/05 03:02:02;;;;;;;22.00;14.50;;;11.70;99.90;;;;;;5005172;28;21048;-81
2021/10/05 03:04:37;;;;;;;22.10;15.70;;;11.70;99.90;;;;;;5008797;28;20643;-82
2021/10/05 03:07:22;;;;;;;21.83;15.10;;;11.70;99.90;;;;;;5007380;28;20634;-81
2021/10/05 03:10:10;;;;;;;18.83;12.87;;;11.70;99.90;;;;;;5006269;28;20649;-81
2021/10/05 03:12:51;;;;;;;19.60;14.50;;;11.70;99.90;;;;;;5006777;28;20621;-81
2021/10/05 03:15:36;;;;;;;23.30;14.40;;;11.70;99.90;;;;;;5021985;28;20632;-81
2021/10/05 03:18:23;;;;;;;21.87;14.33;;;11.80;99.90;;;;;;5023551;28;20674;-81
2021/10/05 03:21:06;;;;;;;17.47;14.23;;;11.80;99.90;;;;;;5005690;28;20610;-81
2021/10/05 03:23:53;;;;;;;23.40;15.07;;;11.90;99.90;;;;;;5009530;28;21194;-81
2021/10/05 03:26:34;;;;;;;24.40;15.93;;;11.80;99.90;;;;;;5025246;28;20705;-81
2021/10/05 03:29:17;;;;;;;18.57;14.67;;;11.80;99.90;;;;;;5005439;28;20623;-81
2021/10/05 03:31:56;;;;;;;18.90;13.40;;;11.70;99.90;;;;;;5022828;28;20996;-80
2021/10/05 03:34:40;;;;;;;19.30;13.17;;;11.80;99.90;;;;;;5025001;28;20668;-81
2021/10/05 03:37:17;;;;;;;17.47;13.40;;;11.80;99.90;;;;;;5021969;28;20630;-81
2021/10/05 03:39:58;;;;;;;16.70;11.93;;;11.70;99.90;;;;;;5006304;28;20629;-81
2021/10/05 03:42:45;;;;;;;17.60;13.13;;;11.60;99.90;;;;;;5009500;28;20629;-81
2021/10/05 03:45:20;;;;;;;15.33;12.47;;;11.60;99.90;;;;;;5025368;28;20623;-81
2021/10/05 03:48:09;;;;;;;17.40;12.13;;;11.70;99.90;;;;;;5018886;28;20658;-81
2021/10/05 03:50:45;;;;;;;16.73;12.53;;;11.70;99.90;;;;;;5018730;28;21215;-81
2021/10/05 03:53:29;;;;;;;17.63;13.70;;;11.70;99.90;;;;;;5020483;28;20642;-81
2021/10/05 03:56:16;;;;;;;18.20;12.20;;;11.70;99.90;;;;;;5013657;28;21151;-81
2021/10/05 03:59:03;;;;;;;19.23;11.17;;;11.70;99.90;;;;;;5023765;28;20738;-81
2021/10/05 04:01:40;;;;;;;15.40;11.77;;;11.70;99.90;;;;;;5009109;28;20642;-81
2021/10/05 04:04:28;;;;;;;15.23;11.60;;;11.60;99.90;;;;;;5012357;28;20658;-81
2021/10/05 04:07:15;;;;;;;18.73;13.63;;;11.60;99.90;;;;;;5040476;27;20760;-81
2021/10/05 04:10:02;;;;;;;20.63;14.40;;;11.60;99.90;;;;;;5008913;28;20712;-81
2021/10/05 04:12:38;;;;;;;15.37;11.73;;;11.70;99.90;;;;;;5009071;28;20669;-81
2021/10/05 04:15:18;;;;;;;14.80;10.50;;;11.70;99.90;;;;;;5013789;28;20701;-81
2021/10/05 04:18:00;;;;;;;14.00;10.57;;;11.70;99.90;;;;;;5008512;28;20677;-82
2021/10/05 04:20:40;;;;;;;13.30;10.43;;;11.70;99.90;;;;;;5020263;28;20678;-81
2021/10/05 04:23:27;;;;;;;18.20;13.47;;;11.70;99.90;;;;;;5013923;28;20709;-82
2021/10/05 04:25:58;;;;;;;16.80;10.40;;;11.70;99.90;;;;;;5020149;28;20634;-81
2021/10/05 04:28:44;;;;;;;15.70;10.73;;;11.70;99.90;;;;;;5020187;28;20638;-81
2021/10/05 04:31:20;;;;;;;16.13;10.40;;;11.70;99.90;;;;;;5015011;28;20644;-81
2021/10/05 04:34:07;;;;;;;12.43;9.53;;;11.70;99.90;;;;;;5011949;28;20791;-80
2021/10/05 04:36:43;;;;;;;13.27;10.50;;;11.70;99.90;;;;;;5019010;28;20641;-81
2021/10/05 04:39:24;;;;;;;13.70;10.40;;;11.70;99.90;;;;;;5022559;28;21246;-81
2021/10/05 04:42:00;;;;;;;14.30;8.93;;;11.70;99.90;;;;;;5016120;28;21221;-81
2021/10/05 04:44:38;;;;;;;15.87;11.80;;;11.70;99.90;;;;;;5021753;28;20653;-81
2021/10/05 04:47:18;;;;;;;16.20;9.77;;;11.70;99.90;;;;;;5026471;28;20669;-81
2021/10/05 04:49:53;;;;;;;15.83;10.73;;;11.60;99.90;;;;;;5027086;28;20628;-81
2021/10/05 04:52:42;;;;;;;15.57;11.40;;;11.60;99.90;;;;;;5014928;28;20643;-81
2021/10/05 04:55:18;;;;;;;16.30;10.50;;;11.60;99.90;;;;;;5014777;28;20719;-81
2021/10/05 04:57:49;;;;;;;15.53;9.77;;;11.60;99.90;;;;;;5008340;28;20965;-81
2021/10/05 05:00:22;;;;;;;13.93;10.00;;;11.60;99.90;;;;;;5020833;28;20656;-82
2021/10/05 05:03:04;;;;;;;12.40;9.27;;;11.60;99.90;;;;;;5003291;28;21415;-81
2021/10/05 05:05:35;;;;;;;16.10;10.43;;;11.50;99.90;;;;;;5050118;27;21200;-81
2021/10/05 05:08:23;;;;;;;13.53;9.10;;;11.60;99.90;;;;;;5105831;27;20728;-82
2021/10/05 05:11:11;;;;;;;13.03;8.67;;;11.50;99.90;;;;;;5007383;28;20642;-81
2021/10/05 05:13:53;;;;;;;19.03;9.80;;;11.60;99.90;;;;;;5010588;28;20626;-82
2021/10/05 05:16:27;;;;;;;15.53;9.60;;;11.60;99.90;;;;;;5027361;28;20653;-82
2021/10/05 05:19:15;;;;;;;12.60;10.27;;;11.60;99.90;;;;;;5016118;28;21068;-82
2021/10/05 05:22:02;;;;;;;12.47;9.07;;;11.60;99.90;;;;;;5029873;28;20724;-82
2021/10/05 05:24:36;;;;;;;14.23;9.10;;;11.60;99.90;;;;;;5014100;28;20669;-82
2021/10/05 05:27:23;;;;;;;12.47;9.90;;;11.60;99.90;;;;;;5017829;28;20602;-82
2021/10/05 05:30:01;;;;;;;14.23;9.10;;;11.50;99.90;;;;;;5010888;28;20664;-82
2021/10/05 05:32:41;;;;;;;12.10;10.20;;;11.60;99.90;;;;;;5011378;28;20618;-82
2021/10/05 05:35:23;;;;;;;14.57;9.00;;;11.50;99.90;;;;;;5012372;28;21118;-82
2021/10/05 05:38:10;;;;;;;10.97;8.30;;;11.50;99.90;;;;;;5011101;28;20784;-83
2021/10/05 05:40:47;;;;;;;14.40;9.63;;;11.50;99.90;;;;;;5016334;28;20625;-83
2021/10/05 05:43:23;;;;;;;16.27;10.90;;;11.50;99.90;;;;;;5008329;28;20638;-83
2021/10/05 05:45:58;;;;;;;15.40;9.30;;;11.50;99.90;;;;;;5010526;28;21281;-83
2021/10/05 05:48:45;;;;;;;13.27;9.10;;;11.60;99.90;;;;;;5005156;28;20716;-83
2021/10/05 05:51:20;;;;;;;13.83;8.37;;;11.50;99.90;;;;;;5016286;28;20629;-83
2021/10/05 05:54:07;;;;;;;14.20;9.50;;;11.50;99.90;;;;;;5006692;28;20655;-83
2021/10/05 05:56:51;;;;;;;11.20;9.33;;;11.50;99.90;;;;;;5017833;28;20644;-83
2021/10/05 05:59:38;;;;;;;17.90;9.83;;;11.60;99.90;;;;;;5020608;28;20624;-83
2021/10/05 06:02:15;;;;;;;12.03;8.20;;;11.60;99.90;;;;;;5007350;28;20619;-83
2021/10/05 06:04:58;;;;;;;13.43;8.87;;;11.60;99.90;;;;;;5020023;28;21165;-82
2021/10/05 06:07:44;;;;;;;14.33;8.70;;;11.60;99.90;;;;;;5006254;28;20676;-83
2021/10/05 06:10:23;;;;;;;11.97;8.70;;;11.60;99.90;;;;;;5015816;28;20615;-84
2021/10/05 06:13:11;;;;;;;14.17;9.00;;;11.70;99.90;;;;;;5018210;28;20625;-84
2021/10/05 06:15:48;;;;;;;15.13;9.47;;;11.60;99.90;;;;;;5022668;28;20718;-83
2021/10/05 06:18:35;;;;;;;12.57;8.03;;;11.70;99.90;;;;;;5015534;28;20647;-84
2021/10/05 06:21:11;;;;;;;16.13;9.43;;;11.70;99.90;;;;;;5016044;28;20633;-84
2021/10/05 06:23:47;;;;;;;11.23;8.73;;;11.80;99.90;;;;;;5011945;28;20679;-84
2021/10/05 06:26:34;;;;;;;12.67;8.60;;;11.70;99.90;;;;;;5012827;28;20741;-83
2021/10/05 06:29:19;;;;;;;14.53;8.57;;;11.70;99.90;;;;;;5015772;28;20615;-84
2021/10/05 06:32:01;;;;;;;12.07;9.43;;;11.80;99.90;;;;;;5007183;28;20647;-84
2021/10/05 06:34:43;;;;;;;12.20;9.07;;;11.90;99.90;;;;;;5025007;28;20654;-84
2021/10/05 06:37:30;;;;;;;9.10;7.80;;;11.90;99.90;;;;;;5008065;28;20655;-84
2021/10/05 06:40:05;;;;;;;16.70;9.40;;;11.90;99.90;;;;;;5017088;28;20666;-84
2021/10/05 06:42:41;;;;;;;12.50;8.00;;;11.80;99.90;;;;;;5016478;28;21041;-84
2021/10/05 06:45:30;;;;;;;11.83;8.47;;;11.90;99.90;;;;;;5013236;28;20708;-83
2021/10/05 06:48:17;;;;;;;16.57;9.13;;;12.00;99.90;;;;;;5013064;28;20673;-84
2021/10/05 06:51:01;;;;;;;11.80;8.83;;;12.00;99.90;;;;;;5011902;28;20634;-84
2021/10/05 06:53:48;;;;;;;13.83;9.30;;;12.00;99.90;;;;;;5016554;28;20628;-84
2021/10/05 06:56:30;;;;;;;12.00;7.30;;;12.10;99.90;;;;;;5016222;28;20679;-83
2021/10/05 06:59:03;;;;;;;10.93;8.17;;;12.00;99.90;;;;;;5016273;28;20630;-83
2021/10/05 07:01:43;;;;;;;10.10;7.80;;;12.10;99.90;;;;;;5015565;28;20636;-83
2021/10/05 07:04:30;;;;;;;10.50;8.87;;;12.20;99.90;;;;;;5005157;28;20948;-83
2021/10/05 07:07:04;;;;;;;11.73;7.50;;;12.20;99.90;;;;;;5015460;28;20638;-83
2021/10/05 07:09:50;;;;;;;11.53;8.50;;;12.40;99.90;;;;;;5016056;28;20611;-83
2021/10/05 07:12:34;;;;;;;11.90;8.07;;;12.40;99.90;;;;;;5011605;27;20669;-83
2021/10/05 07:15:21;;;;;;;8.77;7.80;;;12.50;99.90;;;;;;5014806;28;20950;-83
2021/10/05 07:17:58;;;;;;;9.93;7.13;;;12.40;99.90;;;;;;5017730;28;21037;-83
2021/10/05 07:20:45;;;;;;;10.90;7.33;;;12.50;99.90;;;;;;5014936;28;20651;-83
2021/10/05 07:23:31;;;;;;;8.10;6.33;;;12.60;99.90;;;;;;5011783;28;20622;-84
2021/10/05 07:26:19;;;;;;;8.90;5.53;;;12.70;99.90;;;;;;5008122;28;20715;-83
2021/10/05 07:29:02;;;;;;;9.20;6.90;;;12.80;99.90;;;;;;5010610;28;20638;-83
2021/10/05 07:31:49;;;;;;;7.10;6.10;;;13.00;99.90;;;;;;5018556;28;20642;-83
2021/10/05 07:34:30;;;;;;;7.83;7.00;;;12.90;99.90;;;;;;5019874;28;20636;-84
2021/10/05 07:37:17;;;;;;;10.43;8.40;;;12.90;99.90;;;;;;5012014;28;20636;-84
2021/10/05 07:40:05;;;;;;;8.37;7.10;;;12.90;99.90;;;;;;5013170;28;20717;-83
2021/10/05 07:42:53;;;;;;;10.13;7.83;;;12.80;99.90;;;;;;5015118;28;20632;-83
2021/10/05 07:45:40;;;;;;;12.10;8.97;;;12.70;99.90;;;;;;5019098;28;21052;-83
2021/10/05 07:48:27;;;;;;;10.20;7.27;;;12.70;99.90;;;;;;5015593;28;20628;-83
2021/10/05 07:51:12;;;;;;;11.43;8.37;;;12.70;99.90;;;;;;5014912;28;20646;-83
2021/10/05 07:53:59;;;;;;;13.03;8.57;;;12.80;99.90;;;;;;5011259;28;20647;-83
2021/10/05 07:56:32;;;;;;;9.80;8.10;;;12.70;99.90;;;;;;5018166;28;20655;-83
2021/10/05 07:59:13;;;;;;;9.90;8.23;;;12.70;99.90;;;;;;5018399;28;20662;-83
2021/10/05 08:02:00;;;;;;;10.10;7.80;;;12.70;99.90;;;;;;5019211;28;20723;-83
2021/10/05 08:04:43;;;;;;;7.80;6.23;;;12.70;99.90;;;;;;5020093;28;20623;-83
2021/10/05 08:07:32;;;;;;;8.40;7.23;;;12.80;99.90;;;;;;5015768;28;20630;-83
2021/10/05 08:10:19;;;;;;;12.87;7.67;;;12.90;99.90;;;;;;5015082;28;20707;-84
2021/10/05 08:13:07;;;;;;;11.80;7.20;;;12.80;99.90;;;;;;5019716;28;20636;-84
2021/10/05 08:15:51;;;;;;;8.80;6.73;;;12.80;99.90;;;;;;5019954;28;20665;-84
2021/10/05 08:18:32;;;;;;;6.70;5.83;;;12.80;99.90;;;;;;5018894;28;20623;-83
2021/10/05 08:21:19;;;;;;;8.53;5.90;;;12.70;99.90;;;;;;5018014;28;20636;-83
2021/10/05 08:24:05;;;;;;;6.03;5.50;;;12.80;99.90;;;;;;5007492;28;20624;-84
2021/10/05 08:26:49;;;;;;;7.00;5.07;;;12.90;99.90;;;;;;5019149;28;20626;-84
2021/10/05 08:29:33;;;;;;;6.80;4.90;;;13.00;99.90;;;;;;5015752;28;20619;-83
2021/10/05 08:32:20;;;;;;;6.23;5.50;;;12.90;99.90;;;;;;5011232;28;20704;-84
2021/10/05 08:35:08;;;;;;;7.30;5.80;;;12.90;99.90;;;;;;5008215;28;20651;-83
2021/10/05 08:37:49;;;;;;;6.03;5.00;;;13.10;99.90;;;;;;5009552;28;20644;-84
2021/10/05 08:40:37;;;;;;;6.57;5.20;;;13.00;99.90;;;;;;5018770;28;20619;-84
2021/10/05 08:43:25;;;;;;;4.10;3.70;;;13.00;99.90;;;;;;5016936;28;20635;-84
2021/10/05 08:46:12;;;;;;;11.13;5.70;;;13.00;99.90;;;;;;5014554;28;20767;-84
2021/10/05 08:48:59;;;;;;;6.57;4.13;;;13.00;99.90;;;;;;5015808;28;20635;-83
2021/10/05 08:51:44;;;;;;;4.47;3.90;;;13.10;99.90;;;;;;5015250;28;20723;-84
2021/10/05 08:54:25;;;;;;;4.40;4.00;;;13.10;99.90;;;;;;5008645;28;20639;-84
2021/10/05 08:57:08;;;;;;;4.60;4.20;;;13.00;99.90;;;;;;5017938;28;20660;-84
2021/10/05 08:59:42;;;;;;;5.17;3.80;;;13.10;99.90;;;;;;5008756;28;20627;-84
2021/10/05 09:02:20;;;;;;;4.40;3.87;;;13.10;99.90;;;;;;5011895;28;20629;-84
2021/10/05 09:05:05;;;;;;;4.03;3.60;;;13.10;99.90;;;;;;5018816;28;20620;-85
2021/10/05 09:07:54;;;;;;;4.93;4.33;;;13.10;99.90;;;;;;5018597;28;20714;-85
2021/10/05 09:10:35;;;;;;;5.43;4.03;;;13.10;99.90;;;;;;5017863;28;20651;-84
2021/10/05 09:13:32;;;;;;;4.80;4.43;;;13.20;99.90;;;;;;5019132;28;20608;-85
2021/10/05 09:16:21;;;;;;;6.50;3.97;;;13.30;99.90;;;;;;5020275;28;20701;-85
2021/10/05 09:19:13;;;;;;;4.07;3.67;;;13.20;99.90;;;;;;5016065;28;20669;-84
2021/10/05 09:21:53;;;;;;;4.37;3.97;;;13.30;99.90;;;;;;5008200;28;21163;-84
2021/10/05 09:24:37;;;;;;;5.90;4.67;;;13.20;99.90;;;;;;5011145;28;20632;-84
2021/10/05 09:27:27;;;;;;;6.00;4.70;;;13.40;99.90;;;;;;5015390;28;20712;-84
2021/10/05 09:30:14;;;;;;;5.27;4.70;;;13.50;99.90;;;;;;5019961;28;20650;-86
2021/10/05 09:33:04;;;;;;;8.07;5.40;;;13.50;99.90;;;;;;5014673;28;20621;-84
2021/10/05 09:35:51;;;;;;;5.20;4.70;;;13.70;99.90;;;;;;5007223;28;21264;-84
2021/10/05 09:38:26;;;;;;;5.07;4.57;;;13.80;99.90;;;;;;5019587;28;20639;-85
2021/10/05 09:41:13;;;;;;;5.40;4.30;;;13.80;99.90;;;;;;5028339;28;20823;-85
2021/10/05 09:43:46;;;;;;;5.83;5.20;;;13.90;99.90;;;;;;5019459;28;20651;-85
2021/10/05 09:46:35;;;;;;;5.80;5.20;;;13.90;99.90;;;;;;5005769;28;20652;-84
2021/10/05 09:49:11;;;;;;;6.80;5.37;;;14.00;99.90;;;;;;5013705;28;20647;-85
2021/10/05 09:51:58;;;;;;;6.00;4.90;;;14.10;99.90;;;;;;5017124;28;20632;-85
2021/10/05 09:54:45;;;;;;;8.33;5.03;;;14.10;99.90;;;;;;5013186;28;21161;-85
2021/10/05 09:57:32;;;;;;;6.10;5.33;;;14.20;99.90;;;;;;5011383;28;20758;-84
2021/10/05 10:00:20;;;;;;;5.10;4.30;;;14.30;99.90;;;;;;5011387;28;20640;-84
2021/10/05 10:03:01;;;;;;;5.97;5.03;;;14.40;99.90;;;;;;5016813;28;20626;-84
2021/10/05 10:05:45;;;;;;;4.90;4.03;;;14.50;99.90;;;;;;5018479;28;20627;-85
2021/10/05 10:08:22;;;;;;;3.70;3.40;;;14.40;99.90;;;;;;5016719;28;21478;-85
2021/10/05 10:11:09;;;;;;;5.73;4.00;;;14.50;99.90;;;;;;5006621;28;20609;-85
2021/10/05 10:13:44;;;;;;;4.90;4.07;;;14.50;99.90;;;;;;5019585;28;20683;-85
2021/10/05 10:16:33;;;;;;;5.00;4.07;;;14.60;99.90;;;;;;5018632;28;20658;-85
2021/10/05 10:19:09;;;;;;;4.83;4.33;;;14.50;99.90;;;;;;5018585;28;20627;-85
2021/10/05 10:21:50;;;;;;;4.10;3.07;;;14.60;99.90;;;;;;5018443;28;20725;-85
2021/10/05 10:24:44;;;;;;;2.77;2.57;;;14.70;99.90;;;;;;5014790;28;21187;-84
2021/10/05 10:27:45;;;;;;;;;;;;;;;;;;;;;
2021/10/05 10:30:21;;;;;;;5.90;3.70;;;14.80;99.90;;;;;;5010550;28;20632;-85
2021/10/05 10:33:05;;;;;;;3.47;3.17;;;14.90;99.90;;;;;;5018312;28;21313;-85
2021/10/05 10:35:55;;;;;;;4.33;3.77;;;14.80;99.90;;;;;;5013304;28;20660;-85
2021/10/05 10:38:42;;;;;;;3.20;2.83;;;14.80;99.90;;;;;;5010120;28;20712;-88
2021/10/05 10:41:32;;;;;;;3.10;2.80;;;14.80;99.90;;;;;;5007895;28;20613;-86
2021/10/05 10:44:10;;;;;;;4.80;3.70;;;14.70;99.90;;;;;;5012080;28;21196;-85
2021/10/05 10:46:47;;;;;;;4.97;3.17;;;14.90;99.90;;;;;;5008830;28;20636;-85
2021/10/05 10:49:31;;;;;;;4.93;3.73;;;15.10;99.90;;;;;;5006595;28;21218;-86
2021/10/05 10:52:23;;;;;;;4.30;3.90;;;15.10;99.90;;;;;;5009611;28;21060;-87
2021/10/05 10:55:09;;;;;;;3.50;3.20;;;15.00;99.90;;;;;;5009294;28;20643;-87
2021/10/05 10:57:57;;;;;;;2.67;2.47;;;15.00;99.90;;;;;;5019284;28;20634;-87
2021/10/05 11:00:51;;;;;;;3.20;2.90;;;15.10;99.90;;;;;;5016302;28;20689;-87
2021/10/05 11:03:41;;;;;;;2.77;2.57;;;15.00;99.90;;;;;;5022898;28;20629;-87
2021/10/05 11:06:23;;;;;;;1.87;1.77;;;15.00;99.90;;;;;;5012612;28;21168;-86
2021/10/05 11:09:02;;;;;;;2.93;2.73;;;15.00;99.90;;;;;;5014710;28;20636;-88
2021/10/05 11:11:57;;;;;;;2.70;2.50;;;14.80;99.90;;;;;;5022415;28;20628;-87
2021/10/05 11:14:44;;;;;;;3.00;2.70;;;14.80;99.90;;;;;;5012861;28;20616;-86
2021/10/05 11:17:20;;;;;;;2.10;1.70;;;14.90;99.90;;;;;;5008440;28;20668;-86
2021/10/05 11:20:08;;;;;;;2.63;2.43;;;14.80;99.90;;;;;;5014961;28;20627;-87
2021/10/05 11:23:06;;;;;;;2.33;2.23;;;14.70;99.90;;;;;;5012257;28;21099;-86
2021/10/05 11:25:56;;;;;;;2.23;2.03;;;14.90;99.90;;;;;;5011428;28;20723;-87
2021/10/05 11:28:45;;;;;;;2.00;1.90;;;15.00;99.90;;;;;;5025146;28;20589;-86
2021/10/05 11:31:27;;;;;;;2.00;1.90;;;15.00;99.90;;;;;;5017057;28;20655;-86
2021/10/05 11:34:06;;;;;;;2.20;2.00;;;15.10;99.90;;;;;;5007092;28;20647;-86
2021/10/05 11:36:45;;;;;;;1.60;1.50;;;15.20;99.90;;;;;;5016901;28;20717;-85
2021/10/05 11:39:32;;;;;;;2.37;2.17;;;15.20;99.90;;;;;;5014772;28;20644;-86
2021/10/05 11:45:33;;;;;;;1.87;1.60;;;15.10;99.90;;;;;;5010983;28;21529;-86
2021/10/05 11:48:12;;;;;;;2.57;2.07;;;15.30;99.90;;;;;;5015777;28;20712;-86
2021/10/05 11:51:04;;;;;;;2.93;2.10;;;15.50;99.90;;;;;;5015632;28;20641;-86
2021/10/05 11:53:52;;;;;;;1.80;1.70;;;15.30;99.90;;;;;;5008715;28;21021;-86
2021/10/05 11:56:39;;;;;;;1.73;1.63;;;15.20;99.90;;;;;;5014745;28;20679;-85
2021/10/05 11:59:31;;;;;;;2.00;1.80;;;15.40;99.90;;;;;;5011180;28;21150;-86
2021/10/05 12:02:10;;;;;;;2.00;1.90;;;15.40;99.90;;;;;;5014787;28;20616;-86
2021/10/05 12:04:52;;;;;;;2.10;1.80;;;15.40;99.90;;;;;;5010282;28;20679;-87
2021/10/05 12:07:30;;;;;;;1.37;1.30;;;15.40;99.90;;;;;;5016397;28;20635;-86
2021/10/05 12:10:12;;;;;;;1.70;1.60;;;15.40;99.90;;;;;;5010250;28;20626;-87
2021/10/05 12:12:48;;;;;;;1.30;1.30;;;15.50;99.90;;;;;;5021903;27;20634;-86
2021/10/05 12:15:31;;;;;;;2.53;1.80;;;15.60;99.90;;;;;;5010552;28;20638;-86
2021/10/05 12:18:14;;;;;;;1.30;1.20;;;15.80;99.90;;;;;;5017779;28;20765;-85
2021/10/05 12:21:04;;;;;;;4.10;1.50;;;15.70;99.90;;;;;;5015331;28;20711;-86
2021/10/05 12:23:51;;;;;;;1.27;1.17;;;15.70;99.90;;;;;;5014338;28;20620;-86
2021/10/05 12:26:28;;;;;;;1.93;1.83;;;15.60;99.90;;;;;;5017727;28;21039;-84
2021/10/05 12:29:10;;;;;;;1.80;1.70;;;15.50;99.90;;;;;;5010724;28;21128;-84
2021/10/05 12:31:57;;;;;;;1.30;1.20;;;15.60;99.90;;;;;;5020690;28;20652;-85
2021/10/05 12:34:38;;;;;;;1.63;1.53;;;15.70;99.90;;;;;;5015952;28;20646;-85
2021/10/05 12:37:22;;;;;;;1.50;1.40;;;15.80;99.90;;;;;;5016643;28;21224;-85
2021/10/05 12:39:55;;;;;;;1.67;1.27;;;15.80;99.90;;;;;;5017095;28;21216;-85
2021/10/05 12:42:45;;;;;;;1.07;1.07;;;16.00;99.90;;;;;;5013199;28;20652;-85
2021/10/05 12:45:33;;;;;;;1.37;1.30;;;16.00;99.90;;;;;;5022278;28;21043;-84
2021/10/05 12:48:15;;;;;;;1.33;1.23;;;16.10;99.90;;;;;;5015811;28;20670;-84
2021/10/05 12:51:08;;;;;;;1.20;1.10;;;16.20;99.90;;;;;;5019072;28;20604;-86
2021/10/05 12:53:56;;;;;;;2.20;1.53;;;16.30;99.90;;;;;;5017618;28;20702;-85
2021/10/05 12:56:42;;;;;;;1.03;1.03;;;16.40;99.90;;;;;;5027416;28;20699;-86
2021/10/05 12:59:32;;;;;;;0.80;0.80;;;16.10;99.90;;;;;;5017038;28;20630;-86
2021/10/05 13:02:23;;;;;;;0.93;0.93;;;16.30;99.90;;;;;;5018875;28;20629;-87
2021/10/05 13:05:06;;;;;;;0.83;0.83;;;16.80;99.90;;;;;;5018817;28;20662;-85
2021/10/05 13:07:54;;;;;;;1.27;1.23;;;16.80;99.90;;;;;;5025030;28;20615;-85
2021/10/05 13:10:32;;;;;;;1.43;1.33;;;16.80;99.90;;;;;;5015571;28;20611;-85
2021/10/05 13:13:10;;;;;;;1.13;1.13;;;16.80;99.90;;;;;;5013730;27;20639;-85
2021/10/05 13:16:00;;;;;;;1.73;1.30;;;16.90;99.90;;;;;;5017058;27;20643;-86
2021/10/05 13:18:44;;;;;;;1.13;1.07;;;17.30;99.90;;;;;;5016817;27;21243;-84
2021/10/05 13:21:32;;;;;;;0.80;0.80;;;17.10;99.90;;;;;;5015335;28;20660;-87
2021/10/05 13:24:19;;;;;;;1.10;1.00;;;17.00;99.90;;;;;;5016346;28;20659;-86
2021/10/05 13:26:56;;;;;;;2.03;0.90;;;16.90;99.90;;;;;;5014834;28;20620;-86
2021/10/05 13:29:36;;;;;;;1.00;0.90;;;16.80;99.00;;;;;;5013749;28;20797;-86
2021/10/05 13:32:08;;;;;;;1.07;0.97;;;16.90;99.90;;;;;;5016394;28;20631;-86
2021/10/05 13:34:40;;;;;;;0.70;0.70;;;17.00;99.90;;;;;;5018187;28;20627;-86
2021/10/05 13:37:29;;;;;;;1.57;1.20;;;17.00;99.90;;;;;;5026262;27;20662;-85
2021/10/05 13:40:11;;;;;;;1.27;0.70;;;16.70;99.90;;;;;;5016206;28;20727;-85
2021/10/05 13:42:58;;;;;;;1.20;1.10;;;16.80;99.90;;;;;;5016070;28;20757;-85
2021/10/05 13:45:45;;;;;;;0.80;0.80;;;16.90;99.50;;;;;;5011213;28;20637;-86
2021/10/05 13:48:23;;;;;;;2.80;0.90;;;16.70;98.50;;;;;;5014119;28;20641;-86
2021/10/05 13:50:59;;;;;;;1.37;1.27;;;16.80;99.30;;;;;;5015342;28;20634;-85
2021/10/05 13:53:47;;;;;;;1.17;1.07;;;16.90;98.80;;;;;;5019316;28;20620;-85
2021/10/05 13:56:27;;;;;;;1.63;0.83;;;16.70;99.90;;;;;;5016578;28;20694;-85
2021/10/05 13:59:11;;;;;;;0.90;0.90;;;16.70;99.10;;;;;;5014181;28;20645;-85
2021/10/05 14:01:49;;;;;;;0.90;0.90;;;16.80;98.70;;;;;;5011464;28;20757;-85
2021/10/05 14:04:32;;;;;;;1.20;1.10;;;16.80;99.90;;;;;;5012392;28;21214;-86
2021/10/05 14:07:19;;;;;;;0.73;0.73;;;16.80;99.20;;;;;;5015726;28;21180;-85